Pagrindinis puslapis
METAR-TAF:

METAR-TAF

Oro uostai :

Korumba, Pietų Mato Grosas, Brazilija

platuma: 19-05S, ilguma: 057-30W, Aukštis: 130 m

Dabartinis oras

Ataskaita buvo paskelbta 36 minutes, ne 21:00 UTC
Vėjas 9 kt iš Šiaurės Rytų
Temperatūra 34°C
Drėgmė 53%
Slėgis 1006 hPa
Matomumas 10 km arba daugiau
Mažai debesys ne aukštis 4000 ft

METAR: SBCR 152100Z 04009KT 9999 FEW040 34/23 Q1006

Laikas: 17:36 (21:36 UTC)

Prognozė

Ataskaita buvo paskelbta 6 valandos ir 21 minutes, ne 15:15 UTC
Prognozė galioja nuo 15 metu 18 UTC su 16 metu 18 UTC
Vėjas 7 kt iš Šiaurės/Šiaurės Rytų
Matomumas 10 km arba daugiau
Mažai debesys ne aukštis 3000 ft
Tapsmas
nuo 16 metu 14 UTC su 16 metu 16 UTC
Vėjas 10 kt iš Šiaurės
Išsisklaidę debesys ne aukštis 3000 ft
Mažai debesys ne aukštis 3500 ft, aukštai iškilę kamuoliniai debesys.

TAF: SBCR 151515Z 1518/1618 03007KT 9999 FEW030 TX35/1518Z TN26/1608Z BECMG 1614/1616 35010KT SCT030 FEW035TCU RMK PDW

Orai ataskaitas ir orų prognozės (METAR, TAF).

turimą stotys yra geltonos ir raudonos taškus žemėlapyje.

Perkelti pele per norėdami pamatyti stoties vardą.

Tada spustelėkite, norėdami matyti oro stebėjimo ir prognozės.

Norėdami pakeisti žemėlapį: spustelėkite ant žalios mygtukų su juodo kryžiaus žemyn,; žalią mygtuką su brūkšneliu, jei norite nutolinti; arba žalių rodyklių gretimoms žemėlapius.


METAR-TAF: